createdAt,value
2023-05-12T00:01:54.695Z,89.56
2023-05-12T00:05:04.789Z,89.96
2023-05-12T00:08:13.049Z,89.83
2023-05-12T00:11:21.584Z,90.95
2023-05-12T00:14:30.069Z,91.39
2023-05-12T00:17:38.548Z,90.26
2023-05-12T00:20:48.389Z,89.79
2023-05-12T00:23:57.080Z,89.83
2023-05-12T00:27:05.830Z,89.87
2023-05-12T00:30:14.894Z,89.27
2023-05-12T00:33:23.177Z,89.03
2023-05-12T00:36:33.508Z,88.86
2023-05-12T00:39:41.902Z,89.02
2023-05-12T00:42:50.926Z,89.50
2023-05-12T00:45:59.318Z,88.77
2023-05-12T00:49:08.507Z,89.33
2023-05-12T00:52:18.457Z,88.35
2023-05-12T00:55:27.808Z,89.20
2023-05-12T00:58:36.834Z,89.06
2023-05-12T01:01:45.975Z,88.87
2023-05-12T01:04:54.956Z,89.18
2023-05-12T01:08:05.875Z,89.44
2023-05-12T01:11:14.323Z,89.25
2023-05-12T01:14:22.843Z,89.93
2023-05-12T01:17:36.114Z,89.49
2023-05-12T01:20:48.997Z,89.51
2023-05-12T01:24:07.320Z,89.39
2023-05-12T01:27:18.596Z,89.36
2023-05-12T01:30:28.840Z,89.32
2023-05-12T01:33:38.313Z,89.64
2023-05-12T01:36:46.994Z,89.69
2023-05-12T01:39:55.772Z,89.78
2023-05-12T01:43:05.949Z,89.49
2023-05-12T01:46:14.806Z,89.68
2023-05-12T01:49:24.853Z,89.72
2023-05-12T01:52:33.439Z,89.30
2023-05-12T01:55:42.424Z,89.20
2023-05-12T01:58:52.479Z,89.27
2023-05-12T02:02:01.143Z,89.79
2023-05-12T02:05:12.591Z,89.84
2023-05-12T02:08:22.089Z,89.89
2023-05-12T02:11:30.677Z,90.43
2023-05-12T02:14:40.495Z,90.00
2023-05-12T02:17:50.366Z,90.30
2023-05-12T02:20:59.794Z,90.28
2023-05-12T02:24:08.492Z,91.07
2023-05-12T02:27:16.819Z,91.12
2023-05-12T02:30:26.690Z,91.24
2023-05-12T02:33:34.846Z,90.95
2023-05-12T02:36:43.480Z,91.71
2023-05-12T02:39:53.428Z,91.63
2023-05-12T02:43:01.963Z,91.47
2023-05-12T02:46:12.133Z,91.46
2023-05-12T02:49:21.416Z,91.01
2023-05-12T02:52:29.952Z,91.43
2023-05-12T02:55:38.561Z,91.45
2023-05-12T02:58:47.198Z,91.51
2023-05-12T03:01:58.164Z,91.17
2023-05-12T03:05:08.485Z,90.60
2023-05-12T03:08:18.003Z,90.82
2023-05-12T03:11:26.931Z,90.77
2023-05-12T03:14:35.547Z,90.58
2023-05-12T03:17:45.549Z,89.76
2023-05-12T03:20:54.130Z,90.01
2023-05-12T03:24:05.856Z,90.06
2023-05-12T03:27:14.458Z,90.26
2023-05-12T03:30:22.783Z,90.25
2023-05-12T03:33:35.987Z,90.35
2023-05-12T03:36:44.767Z,89.99
2023-05-12T03:39:56.334Z,89.55
2023-05-12T03:43:05.225Z,89.67
2023-05-12T03:46:13.871Z,89.50
2023-05-12T03:49:23.610Z,89.04
2023-05-12T03:52:31.896Z,89.76
2023-05-12T03:55:40.236Z,89.35
2023-05-12T03:58:48.532Z,89.04
2023-05-12T04:01:58.116Z,88.84
2023-05-12T04:05:10.161Z,89.83
2023-05-12T04:08:20.942Z,88.88
2023-05-12T04:11:29.606Z,89.19
2023-05-12T04:14:43.177Z,88.65
2023-05-12T04:17:52.138Z,88.67
2023-05-12T04:21:02.635Z,88.03
2023-05-12T04:24:11.974Z,88.37
2023-05-12T04:27:20.481Z,88.38
2023-05-12T04:30:28.741Z,88.01
2023-05-12T04:33:37.398Z,88.88
2023-05-12T04:36:48.582Z,87.59
2023-05-12T04:39:57.062Z,87.55
2023-05-12T04:43:08.028Z,87.65
2023-05-12T04:46:16.642Z,86.78
2023-05-12T04:49:25.177Z,86.71
2023-05-12T04:52:35.127Z,86.81
2023-05-12T04:55:45.865Z,86.49
2023-05-12T04:58:54.540Z,86.54
2023-05-12T05:02:03.631Z,86.41
2023-05-12T05:05:12.719Z,85.50
2023-05-12T05:08:24.642Z,85.70
2023-05-12T05:11:33.197Z,85.89
2023-05-12T05:14:41.513Z,84.49
2023-05-12T05:17:50.221Z,84.42
2023-05-12T05:20:59.559Z,82.49
2023-05-12T05:24:10.306Z,81.76
2023-05-12T05:27:18.734Z,81.19
2023-05-12T05:30:27.361Z,80.25
2023-05-12T05:33:35.811Z,79.07
2023-05-12T05:36:45.366Z,78.49
2023-05-12T05:39:55.401Z,77.21
2023-05-12T05:43:03.903Z,77.18
2023-05-12T05:46:12.349Z,76.48
2023-05-12T05:49:21.420Z,77.06
2023-05-12T05:52:29.832Z,77.48
2023-05-12T05:55:44.897Z,78.51
2023-05-12T05:58:55.755Z,79.15
2023-05-12T06:02:09.935Z,79.02
2023-05-12T06:05:19.598Z,77.82
2023-05-12T06:08:28.740Z,77.65
2023-05-12T06:11:39.579Z,77.27
2023-05-12T06:14:49.451Z,77.29
2023-05-12T06:17:58.366Z,75.17
2023-05-12T06:21:07.517Z,75.42
2023-05-12T06:24:16.361Z,74.80
2023-05-12T06:27:26.280Z,75.41
2023-05-12T06:30:35.104Z,74.86
2023-05-12T06:33:43.868Z,74.12
2023-05-12T06:36:55.142Z,74.45
2023-05-12T06:40:04.185Z,72.65
2023-05-12T06:43:15.005Z,70.89
2023-05-12T06:46:26.400Z,69.45
2023-05-12T06:49:38.138Z,68.73
2023-05-12T06:52:47.666Z,69.07
2023-05-12T06:55:56.532Z,67.47
2023-05-12T06:59:07.319Z,68.80
2023-05-12T07:02:16.974Z,68.62
2023-05-12T07:05:25.973Z,68.41
2023-05-12T07:08:34.490Z,67.57
2023-05-12T07:11:43.065Z,67.22
2023-05-12T07:14:53.019Z,67.01
2023-05-12T07:18:01.714Z,63.63
2023-05-12T07:21:10.706Z,60.14
2023-05-12T07:24:19.190Z,60.64
2023-05-12T07:27:27.658Z,62.17
2023-05-12T07:30:38.658Z,64.68
2023-05-12T07:33:47.276Z,65.13
2023-05-12T07:36:55.836Z,66.39
2023-05-12T07:40:04.766Z,68.15
2023-05-12T07:43:13.521Z,68.37
2023-05-12T07:46:24.090Z,67.72
2023-05-12T07:49:32.418Z,64.89
2023-05-12T07:52:49.275Z,62.22
2023-05-12T07:55:57.857Z,62.50
2023-05-12T07:59:06.381Z,62.47
2023-05-12T08:02:17.354Z,63.90
2023-05-12T08:05:25.941Z,63.47
2023-05-12T08:08:34.806Z,63.84
2023-05-12T08:11:46.593Z,62.71
2023-05-12T08:14:56.213Z,63.26
2023-05-12T08:18:06.606Z,64.35
2023-05-12T08:21:15.767Z,62.67
2023-05-12T08:24:24.233Z,61.77
2023-05-12T08:27:33.878Z,59.19
2023-05-12T08:30:42.531Z,54.44
2023-05-12T08:34:08.629Z,53.20
2023-05-12T08:37:18.354Z,53.11
2023-05-12T08:40:31.021Z,53.22
2023-05-12T08:43:44.378Z,55.81
2023-05-12T08:46:58.145Z,57.68
2023-05-12T08:50:11.629Z,56.26
2023-05-12T08:53:22.368Z,56.38
2023-05-12T08:59:45.812Z,61.51
2023-05-12T09:02:56.749Z,63.96
2023-05-12T09:06:11.088Z,65.53
2023-05-12T09:09:21.715Z,64.91
2023-05-12T09:12:38.025Z,65.96
2023-05-12T09:15:49.084Z,66.81
2023-05-12T09:19:03.981Z,68.63
2023-05-12T09:22:16.588Z,67.69
2023-05-12T09:25:25.236Z,68.58
2023-05-12T09:28:38.569Z,69.86
2023-05-12T09:31:51.909Z,69.83
2023-05-12T09:35:05.337Z,70.48
2023-05-12T09:38:16.118Z,70.21
2023-05-12T09:41:25.459Z,70.49
2023-05-12T09:44:34.185Z,67.70
2023-05-12T09:47:43.780Z,67.95
2023-05-12T09:50:54.093Z,68.54
2023-05-12T09:54:07.537Z,67.88
2023-05-12T09:57:19.506Z,67.75
2023-05-12T10:00:46.185Z,66.55
2023-05-12T10:04:00.628Z,65.11
2023-05-12T10:07:14.375Z,63.34
2023-05-12T10:10:27.898Z,63.64
2023-05-12T10:13:37.403Z,62.34
2023-05-12T10:16:47.550Z,60.47
2023-05-12T10:19:57.596Z,60.31
2023-05-12T10:23:08.723Z,58.29
2023-05-12T10:26:20.852Z,58.22
2023-05-12T10:29:33.029Z,56.74
2023-05-12T10:32:41.802Z,55.78
2023-05-12T10:35:50.376Z,56.28
2023-05-12T10:39:07.274Z,55.73
2023-05-12T10:42:25.374Z,55.51
2023-05-12T10:45:38.500Z,54.39
2023-05-12T10:48:59.746Z,53.01
2023-05-12T10:52:08.721Z,53.80
2023-05-12T10:55:19.588Z,51.50
2023-05-12T10:58:31.457Z,53.70
2023-05-12T11:01:41.440Z,53.29
2023-05-12T11:04:58.184Z,53.83
2023-05-12T11:08:09.433Z,55.56
2023-05-12T11:11:20.204Z,57.65
2023-05-12T11:14:31.353Z,57.35
2023-05-12T11:17:41.527Z,54.54
2023-05-12T11:20:51.514Z,55.97
2023-05-12T11:24:01.983Z,57.20
2023-05-12T11:27:16.993Z,59.81
2023-05-12T11:30:27.136Z,60.23
2023-05-12T11:33:35.511Z,62.06
2023-05-12T11:36:45.524Z,63.03
2023-05-12T11:39:54.299Z,62.42
2023-05-12T11:43:12.038Z,61.86
2023-05-12T11:46:28.660Z,61.82
2023-05-12T11:49:49.065Z,61.10
2023-05-12T11:52:58.510Z,61.55
2023-05-12T11:56:07.370Z,60.80
2023-05-12T11:59:26.437Z,61.23
2023-05-12T12:02:37.513Z,58.10
2023-05-12T12:05:59.731Z,59.59
2023-05-12T12:09:08.677Z,60.19
2023-05-12T12:12:17.116Z,59.21
2023-05-12T12:15:25.683Z,57.96
2023-05-12T12:18:36.020Z,55.84
2023-05-12T12:21:44.583Z,56.09
2023-05-12T12:24:52.791Z,55.81
2023-05-12T12:28:00.958Z,53.90
2023-05-12T12:31:09.718Z,53.93
2023-05-12T12:34:19.502Z,54.37
2023-05-12T12:37:28.273Z,54.36
2023-05-12T12:40:36.983Z,54.49
2023-05-12T12:43:45.748Z,55.83
2023-05-12T12:46:53.864Z,55.57
2023-05-12T12:50:03.627Z,56.84
2023-05-12T12:53:11.944Z,56.30
2023-05-12T12:56:20.703Z,58.45
2023-05-12T12:59:29.064Z,61.39
2023-05-12T13:02:37.863Z,62.51
2023-05-12T13:05:48.901Z,62.02
2023-05-12T13:08:58.313Z,62.78
2023-05-12T13:12:07.933Z,62.92
2023-05-12T13:15:19.257Z,62.66
2023-05-12T13:18:28.166Z,62.84
2023-05-12T13:21:37.827Z,64.40
2023-05-12T13:24:46.084Z,62.61
2023-05-12T13:27:54.775Z,61.49
2023-05-12T13:31:03.171Z,60.58
2023-05-12T13:34:11.664Z,61.58
2023-05-12T13:37:21.477Z,62.01
2023-05-12T13:40:30.569Z,60.39
2023-05-12T13:43:39.018Z,61.18
2023-05-12T13:46:47.333Z,60.16
2023-05-12T13:49:56.526Z,60.21
2023-05-12T13:53:07.838Z,60.85
2023-05-12T13:56:17.246Z,61.12
2023-05-12T13:59:25.532Z,60.09
2023-05-12T14:02:34.345Z,59.17
2023-05-12T14:05:42.590Z,58.67
2023-05-12T14:08:52.113Z,59.50
2023-05-12T14:12:00.590Z,59.06
2023-05-12T14:15:29.526Z,58.10
2023-05-12T14:18:39.413Z,55.84
2023-05-12T14:21:48.544Z,54.98
2023-05-12T14:24:58.185Z,54.79
2023-05-12T14:28:06.454Z,57.63
2023-05-12T14:31:14.741Z,61.92
2023-05-12T14:34:23.418Z,64.98
2023-05-12T14:37:32.734Z,67.22
2023-05-12T14:40:43.686Z,69.87
2023-05-12T14:43:51.846Z,71.05
2023-05-12T14:47:00.334Z,70.79
2023-05-12T14:50:09.390Z,71.91
2023-05-12T14:53:17.689Z,71.48
2023-05-12T14:56:27.147Z,71.36
2023-05-12T14:59:35.372Z,71.80
2023-05-12T15:02:45.552Z,71.27
2023-05-12T15:06:05.726Z,71.94
2023-05-12T15:09:14.392Z,71.54
2023-05-12T15:12:24.000Z,72.19
2023-05-12T15:15:33.010Z,71.92
2023-05-12T15:18:41.167Z,70.48
2023-05-12T15:21:49.381Z,70.05
2023-05-12T15:24:57.523Z,71.26
2023-05-12T15:28:07.603Z,71.72
2023-05-12T15:31:15.785Z,72.23
2023-05-12T15:34:23.884Z,71.56
2023-05-12T15:37:32.248Z,71.78
2023-05-12T15:40:40.709Z,72.51
2023-05-12T15:43:50.408Z,73.04
2023-05-12T15:46:59.511Z,72.96
2023-05-12T15:50:10.332Z,73.83
2023-05-12T15:53:18.916Z,73.81
2023-05-12T15:56:27.256Z,73.71
2023-05-12T15:59:37.934Z,73.35
2023-05-12T16:02:46.548Z,73.09
2023-05-12T16:05:56.321Z,72.62
2023-05-12T16:09:04.916Z,72.75
2023-05-12T16:12:15.356Z,73.42
2023-05-12T16:15:25.016Z,73.62
2023-05-12T16:18:33.625Z,72.81
2023-05-12T16:21:42.484Z,72.71
2023-05-12T16:24:50.655Z,72.86
2023-05-12T16:27:59.006Z,73.58
2023-05-12T16:31:08.490Z,72.10
2023-05-12T16:34:16.668Z,71.92
2023-05-12T16:37:26.431Z,72.81
2023-05-12T16:40:34.667Z,72.66
2023-05-12T16:43:42.952Z,72.55
2023-05-12T16:46:52.517Z,73.36
2023-05-12T16:50:00.667Z,72.39
2023-05-12T16:53:09.317Z,73.08
2023-05-12T16:56:17.554Z,74.55
2023-05-12T16:59:26.429Z,74.06
2023-05-12T17:02:36.525Z,74.54
2023-05-12T17:05:44.985Z,74.84
2023-05-12T17:08:53.100Z,75.28
2023-05-12T17:12:01.592Z,74.02
2023-05-12T17:15:11.910Z,73.77
2023-05-12T17:18:22.287Z,73.91
2023-05-12T17:21:31.334Z,74.46
2023-05-12T17:24:39.562Z,75.56
2023-05-12T17:27:49.218Z,75.07
2023-05-12T17:30:58.082Z,76.12
2023-05-12T17:34:07.630Z,76.20
2023-05-12T17:37:15.835Z,76.82
2023-05-12T17:40:24.520Z,77.88
2023-05-12T17:43:32.907Z,78.76
2023-05-12T17:46:41.530Z,79.05
2023-05-12T17:49:52.139Z,78.21
2023-05-12T17:53:00.515Z,79.04
2023-05-12T17:56:08.783Z,79.33
2023-05-12T17:59:17.091Z,79.54
2023-05-12T18:02:25.281Z,79.40
2023-05-12T18:05:35.972Z,79.58
2023-05-12T18:08:45.403Z,80.01
2023-05-12T18:11:56.705Z,81.27
2023-05-12T18:15:07.432Z,81.31
2023-05-12T18:18:16.171Z,80.79
2023-05-12T18:21:26.568Z,80.62
2023-05-12T18:24:35.634Z,80.27
2023-05-12T18:27:44.356Z,80.05
2023-05-12T18:30:54.557Z,80.68
2023-05-12T18:34:04.341Z,81.40
2023-05-12T18:37:15.498Z,81.17
2023-05-12T18:40:24.060Z,81.57
2023-05-12T18:43:32.323Z,81.18
2023-05-12T18:46:40.497Z,81.65
2023-05-12T18:49:48.813Z,82.08
2023-05-12T18:52:59.164Z,81.52
2023-05-12T18:56:07.292Z,81.84
2023-05-12T18:59:15.859Z,81.83
2023-05-12T19:02:23.988Z,82.37
2023-05-12T19:05:32.440Z,82.74
2023-05-12T19:08:46.361Z,82.95
2023-05-12T19:11:54.633Z,83.02
2023-05-12T19:15:03.258Z,83.01
2023-05-12T19:18:11.453Z,83.51
2023-05-12T19:21:19.801Z,82.98
2023-05-12T19:24:30.966Z,83.07
2023-05-12T19:27:39.718Z,82.71
2023-05-12T19:30:48.194Z,82.75
2023-05-12T19:33:56.646Z,82.80
2023-05-12T19:37:06.486Z,82.23
2023-05-12T19:40:16.671Z,82.33
2023-05-12T19:43:26.406Z,81.76
2023-05-12T19:46:34.879Z,82.06
2023-05-12T19:49:43.441Z,82.77
2023-05-12T19:52:52.467Z,82.49
2023-05-12T19:56:02.303Z,82.74
2023-05-12T19:59:10.586Z,82.64
2023-05-12T20:02:19.140Z,82.38
2023-05-12T20:05:27.351Z,82.33
2023-05-12T20:08:35.486Z,82.50
2023-05-12T20:11:45.673Z,82.26
2023-05-12T20:14:54.056Z,82.33
2023-05-12T20:18:02.727Z,82.86
2023-05-12T20:21:12.077Z,82.15
2023-05-12T20:24:20.266Z,81.50
2023-05-12T20:27:30.012Z,82.72
2023-05-12T20:30:38.864Z,82.32
2023-05-12T20:33:47.356Z,82.48
2023-05-12T20:36:55.873Z,81.69
2023-05-12T20:40:05.381Z,82.09
2023-05-12T20:43:15.022Z,82.08
2023-05-12T20:46:23.338Z,81.23
2023-05-12T20:49:31.642Z,81.69
2023-05-12T20:52:41.166Z,82.12
2023-05-12T20:55:49.983Z,81.58
2023-05-12T20:58:59.986Z,81.69
2023-05-12T21:02:08.937Z,83.26
2023-05-12T21:05:17.969Z,82.35
2023-05-12T21:08:27.161Z,82.18
2023-05-12T21:11:36.073Z,82.12
2023-05-12T21:14:46.972Z,82.29
2023-05-12T21:17:55.503Z,82.07
2023-05-12T21:21:03.823Z,82.08
2023-05-12T21:24:12.171Z,82.44
2023-05-12T21:27:20.873Z,82.24
2023-05-12T21:30:30.467Z,81.28
2023-05-12T21:33:38.966Z,82.38
2023-05-12T21:36:47.637Z,81.25
2023-05-12T21:40:03.496Z,81.54
2023-05-12T21:43:16.137Z,81.36
2023-05-12T21:46:25.830Z,81.53
2023-05-12T21:49:34.200Z,81.38
2023-05-12T21:52:42.762Z,81.54
2023-05-12T21:55:51.189Z,82.27
2023-05-12T21:58:59.651Z,82.24
2023-05-12T22:02:09.541Z,82.09
2023-05-12T22:05:18.188Z,82.19
2023-05-12T22:08:26.738Z,83.21
2023-05-12T22:11:35.094Z,81.85
2023-05-12T22:14:43.464Z,81.48
2023-05-12T22:17:53.260Z,81.89
2023-05-12T22:21:01.985Z,82.22
2023-05-12T22:24:11.190Z,81.62
2023-05-12T22:27:22.169Z,82.64
2023-05-12T22:30:30.542Z,82.39
2023-05-12T22:33:40.148Z,82.37
2023-05-12T22:36:49.209Z,82.21
2023-05-12T22:39:57.524Z,82.40
2023-05-12T22:43:06.789Z,82.75
2023-05-12T22:46:14.959Z,83.09
2023-05-12T22:49:25.053Z,82.37
2023-05-12T22:52:33.398Z,82.89
2023-05-12T22:55:41.621Z,83.36
2023-05-12T22:58:49.802Z,82.55
2023-05-12T23:01:58.052Z,83.04
2023-05-12T23:05:09.021Z,82.46
2023-05-12T23:08:17.198Z,82.91
2023-05-12T23:11:25.832Z,82.86
2023-05-12T23:14:34.404Z,82.39
2023-05-12T23:17:43.012Z,83.09
2023-05-12T23:20:52.950Z,82.62
2023-05-12T23:24:04.326Z,82.56
2023-05-12T23:27:12.609Z,83.05
2023-05-12T23:30:21.796Z,82.88
2023-05-12T23:33:30.997Z,84.12
2023-05-12T23:36:40.766Z,83.75
2023-05-12T23:39:49.241Z,83.53
2023-05-12T23:42:57.362Z,83.52
2023-05-12T23:46:06.013Z,83.36
2023-05-12T23:49:14.441Z,83.92
2023-05-12T23:52:24.246Z,84.05
2023-05-12T23:55:32.356Z,83.58
2023-05-12T23:58:40.650Z,84.52
